Western Trident — 3FE09 — position and weather

sailwx.info

Track history (hours):
 
Tides and Currents Weather Stations Pressure Air Temp Water Temp Dewpoint Dewpoint Depression Visibility Wind Speed Wind Dir Waves Ship Positions

Western Trident

Last reported at 2015-May-18 19:21 UTC. Time now 2015-May-23 07:22 UTC.
Position N 36°44' W 030°20'.

Length 95 m; draft 7.4 m.

Type: Other ship. MMSI: 357269000.

Date/timePositionNaut miles runAvg speedWind from/ knotsBaromVisibWave heightAir tempDewpointWater temp
2015-May-18 19:21N 36°44' W 030°20'15 6.6
2015-May-18 17:08N 36°36' W 030°05'5 6.8
2015-May-18 16:24N 36°33' W 029°60'6 6.5
2015-May-18 15:31N 36°30' W 029°54'15 6.3
2015-May-18 13:12N 36°22' W 029°39'12 6.4
2015-May-18 11:20N 36°15' W 029°26'5 6.6
2015-May-18 10:34N 36°13' W 029°21'69 6.7
2015-May-18 00:12N 35°34' W 028°10'17 6.6
2015-May-17 21:33N 35°25' W 027°52'15 6.8
2015-May-17 19:16N 35°16' W 027°36'6 6.8
2015-May-17 18:25N 35°13' W 027°30'6 6.9
2015-May-17 17:33N 35°10' W 027°24'21 6.9
2015-May-17 14:29N 34°58' W 027°02'7 6.8
2015-May-17 13:31N 34°55' W 026°56'7 7.2
2015-May-17 12:33N 34°51' W 026°49'8 7.3
2015-May-17 11:30N 34°47' W 026°41'7 6.0
2015-May-17 10:21N 34°43' W 026°34'5 4.7
2015-May-17 09:23N 34°40' W 026°29'6 6.4
2015-May-17 08:23N 34°37' W 026°23'29 7.2
2015-May-17 04:22N 34°21' W 025°53'6 7.4
2015-May-17 03:33N 34°18' W 025°47'8 7.4
2015-May-17 02:30N 34°13' W 025°40'14 7.2
2015-May-17 00:33N 34°06' W 025°25'7 7.0
2015-May-16 23:34N 34°02' W 025°18'8 6.9
2015-May-16 22:22N 33°57' W 025°10'6 6.6
2015-May-16 21:32N 33°54' W 025°05'8 6.4
2015-May-16 20:16N 33°50' W 024°56'51 6.6
2015-May-16 12:31N 33°22' W 024°05'66 8.2
2015-May-16 04:25N 32°45' W 022°59'10 8.3
2015-May-16 03:15N 32°40' W 022°50'6 8.2
2015-May-16 02:28N 32°36' W 022°43'7 7.9
2015-May-16 01:34N 32°32' W 022°36'8 8.1
2015-May-16 00:34N 32°28' W 022°28'8 8.0
2015-May-15 23:34N 32°24' W 022°20'8 7.8
2015-May-15 22:34N 32°19' W 022°12'65 7.7
2015-May-15 14:06N 31°43' W 021°09'4 7.5
2015-May-15 13:33N 31°41' W 021°05'15 7.4
2015-May-15 11:27N 31°33' W 020°49'7 7.3
2015-May-15 10:34N 31°29' W 020°43'8 7.7
2015-May-15 09:34N 31°25' W 020°35'9 7.8
2015-May-15 08:27N 31°20' W 020°27'9 8.0
2015-May-15 07:17N 31°15' W 020°18'6 8.1
2015-May-15 06:33N 31°12' W 020°12'8 7.9
2015-May-15 05:33N 31°07' W 020°04'19 7.8
2015-May-15 03:09N 30°57' W 019°46'5 7.9
2015-May-15 02:34N 30°54' W 019°41'11 8.1
2015-May-15 01:10N 30°48' W 019°31'237 7.5
2015-May-13 17:31N 28°38' W 015°43'27 0.8
2015-May-12 08:28N 28°24' W 015°16'1 1.5
2015-May-12 07:31N 28°26' W 015°16'6 0.8
2015-May-12 00:32N 28°29' W 015°11'2 2.0
2015-May-11 23:29N 28°31' W 015°10'2 1.8
2015-May-11 22:34N 28°33' W 015°09'1 1.2
2015-May-11 21:23N 28°34' W 015°08'2 1.4
2015-May-11 20:12N 28°34' W 015°06'1 1.4
2015-May-11 19:24N 28°33' W 015°07'2 1.8
2015-May-11 18:33N 28°32' W 015°07'2 1.9
2015-May-11 17:14N 28°30' W 015°09'2 2.2
2015-May-11 16:24N 28°28' W 015°10'3 3.3
2015-May-11 15:33N 28°27' W 015°08'4 4.2
2015-May-11 14:30N 28°31' W 015°07'4 4.1
2015-May-11 13:34N 28°35' W 015°08'7 1.1
2015-May-11 07:19N 28°42' W 015°09'2 1.0
2015-May-11 05:20N 28°40' W 015°11'9 1.3
2015-May-10 22:30N 28°34' W 015°18'3 1.1
2015-May-10 19:33N 28°33' W 015°21'31 2.7
2015-May-10 08:16N 28°59' W 015°01'2 3.1
2015-May-10 07:29N 29°01' W 014°60'3 3.3
2015-May-10 06:32N 29°03' W 014°58'  
Track history (hours):
 
Tides and Currents Weather Stations Pressure Air Temp Water Temp Dewpoint Dewpoint Depression Visibility Wind Speed Wind Dir Waves Ship Positions

Western Trident

Last reported at 2015-May-18 19:21 UTC. Time now 2015-May-23 07:22 UTC.
Position N 36°44' W 030°20'.

Length 95 m; draft 7.4 m.

Type: Other ship. MMSI: 357269000.

Date/timePositionNaut miles runAvg speedWind from/ knotsBaromVisibWave heightAir tempDewpointWater temp
2015-May-18 19:21N 36°44' W 030°20'15 6.6
2015-May-18 17:08N 36°36' W 030°05'5 6.8
2015-May-18 16:24N 36°33' W 029°60'6 6.5
2015-May-18 15:31N 36°30' W 029°54'15 6.3
2015-May-18 13:12N 36°22' W 029°39'12 6.4
2015-May-18 11:20N 36°15' W 029°26'5 6.6
2015-May-18 10:34N 36°13' W 029°21'69 6.7
2015-May-18 00:12N 35°34' W 028°10'17 6.6
2015-May-17 21:33N 35°25' W 027°52'15 6.8
2015-May-17 19:16N 35°16' W 027°36'6 6.8
2015-May-17 18:25N 35°13' W 027°30'6 6.9
2015-May-17 17:33N 35°10' W 027°24'21 6.9
2015-May-17 14:29N 34°58' W 027°02'7 6.8
2015-May-17 13:31N 34°55' W 026°56'7 7.2
2015-May-17 12:33N 34°51' W 026°49'8 7.3
2015-May-17 11:30N 34°47' W 026°41'7 6.0
2015-May-17 10:21N 34°43' W 026°34'5 4.7
2015-May-17 09:23N 34°40' W 026°29'6 6.4
2015-May-17 08:23N 34°37' W 026°23'29 7.2
2015-May-17 04:22N 34°21' W 025°53'6 7.4
2015-May-17 03:33N 34°18' W 025°47'8 7.4
2015-May-17 02:30N 34°13' W 025°40'14 7.2
2015-May-17 00:33N 34°06' W 025°25'7 7.0
2015-May-16 23:34N 34°02' W 025°18'8 6.9
2015-May-16 22:22N 33°57' W 025°10'6 6.6
2015-May-16 21:32N 33°54' W 025°05'8 6.4
2015-May-16 20:16N 33°50' W 024°56'51 6.6
2015-May-16 12:31N 33°22' W 024°05'66 8.2
2015-May-16 04:25N 32°45' W 022°59'10 8.3
2015-May-16 03:15N 32°40' W 022°50'6 8.2
2015-May-16 02:28N 32°36' W 022°43'7 7.9
2015-May-16 01:34N 32°32' W 022°36'8 8.1
2015-May-16 00:34N 32°28' W 022°28'8 8.0
2015-May-15 23:34N 32°24' W 022°20'8 7.8
2015-May-15 22:34N 32°19' W 022°12'65 7.7
2015-May-15 14:06N 31°43' W 021°09'4 7.5
2015-May-15 13:33N 31°41' W 021°05'15 7.4
2015-May-15 11:27N 31°33' W 020°49'7 7.3
2015-May-15 10:34N 31°29' W 020°43'8 7.7
2015-May-15 09:34N 31°25' W 020°35'9 7.8
2015-May-15 08:27N 31°20' W 020°27'9 8.0
2015-May-15 07:17N 31°15' W 020°18'6 8.1
2015-May-15 06:33N 31°12' W 020°12'8 7.9
2015-May-15 05:33N 31°07' W 020°04'19 7.8
2015-May-15 03:09N 30°57' W 019°46'5 7.9
2015-May-15 02:34N 30°54' W 019°41'11 8.1
2015-May-15 01:10N 30°48' W 019°31'237 7.5
2015-May-13 17:31N 28°38' W 015°43'27 0.8
2015-May-12 08:28N 28°24' W 015°16'1 1.5
2015-May-12 07:31N 28°26' W 015°16'6 0.8
2015-May-12 00:32N 28°29' W 015°11'2 2.0
2015-May-11 23:29N 28°31' W 015°10'2 1.8
2015-May-11 22:34N 28°33' W 015°09'1 1.2
2015-May-11 21:23N 28°34' W 015°08'2 1.4
2015-May-11 20:12N 28°34' W 015°06'1 1.4
2015-May-11 19:24N 28°33' W 015°07'2 1.8
2015-May-11 18:33N 28°32' W 015°07'2 1.9
2015-May-11 17:14N 28°30' W 015°09'2 2.2
2015-May-11 16:24N 28°28' W 015°10'3 3.3
2015-May-11 15:33N 28°27' W 015°08'4 4.2
2015-May-11 14:30N 28°31' W 015°07'4 4.1
2015-May-11 13:34N 28°35' W 015°08'7 1.1
2015-May-11 07:19N 28°42' W 015°09'2 1.0
2015-May-11 05:20N 28°40' W 015°11'9 1.3
2015-May-10 22:30N 28°34' W 015°18'3 1.1
2015-May-10 19:33N 28°33' W 015°21'31 2.7
2015-May-10 08:16N 28°59' W 015°01'2 3.1
2015-May-10 07:29N 29°01' W 014°60'3 3.3
2015-May-10 06:32N 29°03' W 014°58'  

Dump ship's entire track history